sensor_id;sensor_type;location;lat;lon;timestamp;temperature;humidity
5154;DHT22;2595;53.584;10.084;2023-01-04T00:01:03;7.20;99.90
5154;DHT22;2595;53.584;10.084;2023-01-04T00:03:29;7.20;99.90
5154;DHT22;2595;53.584;10.084;2023-01-04T00:06:00;7.20;99.90
5154;DHT22;2595;53.584;10.084;2023-01-04T00:08:26;7.20;99.90
5154;DHT22;2595;53.584;10.084;2023-01-04T00:10:52;7.30;99.90
5154;DHT22;2595;53.584;10.084;2023-01-04T00:13:18;7.30;99.90
5154;DHT22;2595;53.584;10.084;2023-01-04T00:15:43;7.30;99.90
5154;DHT22;2595;53.584;10.084;2023-01-04T00:18:09;7.30;99.90
5154;DHT22;2595;53.584;10.084;2023-01-04T00:20:35;7.30;99.90
5154;DHT22;2595;53.584;10.084;2023-01-04T00:23:00;7.30;99.90
5154;DHT22;2595;53.584;10.084;2023-01-04T00:25:26;7.40;99.90
5154;DHT22;2595;53.584;10.084;2023-01-04T00:27:52;7.40;99.90
5154;DHT22;2595;53.584;10.084;2023-01-04T00:30:17;7.40;99.90
5154;DHT22;2595;53.584;10.084;2023-01-04T00:32:44;7.40;99.90
5154;DHT22;2595;53.584;10.084;2023-01-04T00:35:10;7.40;99.90
5154;DHT22;2595;53.584;10.084;2023-01-04T00:37:36;7.40;99.90
5154;DHT22;2595;53.584;10.084;2023-01-04T00:40:02;7.40;99.90
5154;DHT22;2595;53.584;10.084;2023-01-04T00:42:28;7.40;99.90
5154;DHT22;2595;53.584;10.084;2023-01-04T00:44:53;7.30;99.90
5154;DHT22;2595;53.584;10.084;2023-01-04T00:47:19;7.30;99.90
5154;DHT22;2595;53.584;10.084;2023-01-04T00:49:45;7.30;99.90
5154;DHT22;2595;53.584;10.084;2023-01-04T00:52:10;7.40;99.90
5154;DHT22;2595;53.584;10.084;2023-01-04T00:54:36;7.40;99.90
5154;DHT22;2595;53.584;10.084;2023-01-04T00:57:01;7.40;99.90
5154;DHT22;2595;53.584;10.084;2023-01-04T00:59:29;7.40;99.90
5154;DHT22;2595;53.584;10.084;2023-01-04T01:01:55;7.50;99.90
5154;DHT22;2595;53.584;10.084;2023-01-04T01:04:22;7.50;99.90
5154;DHT22;2595;53.584;10.084;2023-01-04T01:06:49;7.50;99.90
5154;DHT22;2595;53.584;10.084;2023-01-04T01:09:15;7.50;99.90
5154;DHT22;2595;53.584;10.084;2023-01-04T01:11:41;7.50;99.90
5154;DHT22;2595;53.584;10.084;2023-01-04T01:14:08;7.50;99.90
5154;DHT22;2595;53.584;10.084;2023-01-04T01:16:38;7.50;99.90
5154;DHT22;2595;53.584;10.084;2023-01-04T01:19:03;7.50;99.90
5154;DHT22;2595;53.584;10.084;2023-01-04T01:21:29;7.60;99.90
5154;DHT22;2595;53.584;10.084;2023-01-04T01:23:56;7.50;99.90
5154;DHT22;2595;53.584;10.084;2023-01-04T01:26:23;7.50;99.90
5154;DHT22;2595;53.584;10.084;2023-01-04T01:28:50;7.60;99.90
5154;DHT22;2595;53.584;10.084;2023-01-04T01:31:25;7.60;99.90
5154;DHT22;2595;53.584;10.084;2023-01-04T01:33:52;7.60;99.90
5154;DHT22;2595;53.584;10.084;2023-01-04T01:36:20;7.70;99.90
5154;DHT22;2595;53.584;10.084;2023-01-04T01:38:46;7.70;99.90
5154;DHT22;2595;53.584;10.084;2023-01-04T01:41:27;7.70;99.90
5154;DHT22;2595;53.584;10.084;2023-01-04T01:46:50;7.80;99.90
5154;DHT22;2595;53.584;10.084;2023-01-04T01:49:44;7.70;99.90
5154;DHT22;2595;53.584;10.084;2023-01-04T01:52:14;7.70;99.90
5154;DHT22;2595;53.584;10.084;2023-01-04T01:54:44;7.80;99.90
5154;DHT22;2595;53.584;10.084;2023-01-04T01:57:14;7.80;99.90
5154;DHT22;2595;53.584;10.084;2023-01-04T01:59:43;7.80;99.90
5154;DHT22;2595;53.584;10.084;2023-01-04T02:02:11;7.80;99.90
5154;DHT22;2595;53.584;10.084;2023-01-04T02:04:38;7.80;99.90
5154;DHT22;2595;53.584;10.084;2023-01-04T02:07:06;7.80;99.90
5154;DHT22;2595;53.584;10.084;2023-01-04T02:09:32;7.90;99.90
5154;DHT22;2595;53.584;10.084;2023-01-04T02:11:58;7.90;99.90
5154;DHT22;2595;53.584;10.084;2023-01-04T02:14:24;7.90;99.90
5154;DHT22;2595;53.584;10.084;2023-01-04T02:17:28;7.90;99.90
5154;DHT22;2595;53.584;10.084;2023-01-04T02:28:01;8.00;99.90
5154;DHT22;2595;53.584;10.084;2023-01-04T02:33:32;8.00;99.90
5154;DHT22;2595;53.584;10.084;2023-01-04T02:41:21;7.90;99.90
5154;DHT22;2595;53.584;10.084;2023-01-04T02:46:52;7.90;99.90
5154;DHT22;2595;53.584;10.084;2023-01-04T02:49:20;7.90;99.90
5154;DHT22;2595;53.584;10.084;2023-01-04T02:52:04;7.90;99.90
5154;DHT22;2595;53.584;10.084;2023-01-04T02:54:30;8.00;99.90
5154;DHT22;2595;53.584;10.084;2023-01-04T03:00:32;8.00;99.90
5154;DHT22;2595;53.584;10.084;2023-01-04T03:03:26;8.00;99.90
5154;DHT22;2595;53.584;10.084;2023-01-04T03:06:27;7.90;99.90
5154;DHT22;2595;53.584;10.084;2023-01-04T03:09:18;8.00;99.90
5154;DHT22;2595;53.584;10.084;2023-01-04T03:11:52;8.00;99.90
5154;DHT22;2595;53.584;10.084;2023-01-04T03:14:47;8.00;99.90
5154;DHT22;2595;53.584;10.084;2023-01-04T03:17:17;8.00;99.90
5154;DHT22;2595;53.584;10.084;2023-01-04T03:19:45;7.90;99.90
5154;DHT22;2595;53.584;10.084;2023-01-04T03:25:08;8.00;99.90
5154;DHT22;2595;53.584;10.084;2023-01-04T03:27:53;8.00;99.90
5154;DHT22;2595;53.584;10.084;2023-01-04T03:30:44;8.00;99.90
5154;DHT22;2595;53.584;10.084;2023-01-04T03:33:29;8.00;99.90
5154;DHT22;2595;53.584;10.084;2023-01-04T03:36:40;8.00;99.90
5154;DHT22;2595;53.584;10.084;2023-01-04T03:39:54;8.00;99.90
5154;DHT22;2595;53.584;10.084;2023-01-04T03:42:32;8.00;99.90
5154;DHT22;2595;53.584;10.084;2023-01-04T03:45:22;7.90;99.90
5154;DHT22;2595;53.584;10.084;2023-01-04T03:48:17;8.00;99.90
5154;DHT22;2595;53.584;10.084;2023-01-04T03:51:08;8.00;99.90
5154;DHT22;2595;53.584;10.084;2023-01-04T03:53:47;8.00;99.90
5154;DHT22;2595;53.584;10.084;2023-01-04T03:56:14;7.90;99.90
5154;DHT22;2595;53.584;10.084;2023-01-04T03:58:41;8.00;99.90
5154;DHT22;2595;53.584;10.084;2023-01-04T04:01:07;7.90;99.90
5154;DHT22;2595;53.584;10.084;2023-01-04T04:03:33;7.90;99.90
5154;DHT22;2595;53.584;10.084;2023-01-04T04:06:17;7.90;99.90
5154;DHT22;2595;53.584;10.084;2023-01-04T04:09:06;7.80;99.90
5154;DHT22;2595;53.584;10.084;2023-01-04T04:11:32;7.80;99.90
5154;DHT22;2595;53.584;10.084;2023-01-04T04:13:58;7.80;99.90
5154;DHT22;2595;53.584;10.084;2023-01-04T04:16:25;7.80;99.90
5154;DHT22;2595;53.584;10.084;2023-01-04T04:18:50;7.80;99.90
5154;DHT22;2595;53.584;10.084;2023-01-04T04:21:16;7.80;99.90
5154;DHT22;2595;53.584;10.084;2023-01-04T04:23:42;7.70;99.90
5154;DHT22;2595;53.584;10.084;2023-01-04T04:26:08;7.70;99.90
5154;DHT22;2595;53.584;10.084;2023-01-04T04:28:33;7.60;99.90
5154;DHT22;2595;53.584;10.084;2023-01-04T04:30:59;7.60;99.90
5154;DHT22;2595;53.584;10.084;2023-01-04T04:33:25;7.60;99.90
5154;DHT22;2595;53.584;10.084;2023-01-04T04:35:52;7.60;99.90
5154;DHT22;2595;53.584;10.084;2023-01-04T04:38:17;7.60;99.90
5154;DHT22;2595;53.584;10.084;2023-01-04T04:40:44;7.50;99.90
5154;DHT22;2595;53.584;10.084;2023-01-04T04:43:28;7.50;99.90
5154;DHT22;2595;53.584;10.084;2023-01-04T04:45:53;7.50;99.90
5154;DHT22;2595;53.584;10.084;2023-01-04T04:48:19;7.50;99.90
5154;DHT22;2595;53.584;10.084;2023-01-04T04:50:44;7.40;99.90
5154;DHT22;2595;53.584;10.084;2023-01-04T04:53:10;7.40;99.90
5154;DHT22;2595;53.584;10.084;2023-01-04T04:55:35;7.40;99.90
5154;DHT22;2595;53.584;10.084;2023-01-04T04:58:01;7.40;99.90
5154;DHT22;2595;53.584;10.084;2023-01-04T05:00:27;7.40;99.90
5154;DHT22;2595;53.584;10.084;2023-01-04T05:02:52;7.40;99.90
5154;DHT22;2595;53.584;10.084;2023-01-04T05:05:18;7.40;99.90
5154;DHT22;2595;53.584;10.084;2023-01-04T05:07:44;7.40;99.90
5154;DHT22;2595;53.584;10.084;2023-01-04T05:10:09;7.40;99.90
5154;DHT22;2595;53.584;10.084;2023-01-04T05:12:35;7.40;99.90
5154;DHT22;2595;53.584;10.084;2023-01-04T05:15:19;7.40;99.90
5154;DHT22;2595;53.584;10.084;2023-01-04T05:17:45;7.30;99.90
5154;DHT22;2595;53.584;10.084;2023-01-04T05:20:10;7.30;99.90
5154;DHT22;2595;53.584;10.084;2023-01-04T05:22:36;7.30;99.90
5154;DHT22;2595;53.584;10.084;2023-01-04T05:25:02;7.30;99.90
5154;DHT22;2595;53.584;10.084;2023-01-04T05:27:27;7.40;99.90
5154;DHT22;2595;53.584;10.084;2023-01-04T05:29:53;7.40;99.90
5154;DHT22;2595;53.584;10.084;2023-01-04T05:32:38;7.40;99.90
5154;DHT22;2595;53.584;10.084;2023-01-04T05:35:06;7.40;99.90
5154;DHT22;2595;53.584;10.084;2023-01-04T05:37:32;7.40;99.90
5154;DHT22;2595;53.584;10.084;2023-01-04T05:39:57;7.40;99.90
5154;DHT22;2595;53.584;10.084;2023-01-04T05:42:23;7.40;99.90
5154;DHT22;2595;53.584;10.084;2023-01-04T05:44:57;7.40;99.90
5154;DHT22;2595;53.584;10.084;2023-01-04T05:47:23;7.40;99.90
5154;DHT22;2595;53.584;10.084;2023-01-04T05:49:50;7.40;99.90
5154;DHT22;2595;53.584;10.084;2023-01-04T05:52:16;7.40;99.90
5154;DHT22;2595;53.584;10.084;2023-01-04T05:54:41;7.40;99.90
5154;DHT22;2595;53.584;10.084;2023-01-04T05:57:07;7.40;99.90
5154;DHT22;2595;53.584;10.084;2023-01-04T05:59:33;7.50;99.90
5154;DHT22;2595;53.584;10.084;2023-01-04T06:01:59;7.50;99.90
5154;DHT22;2595;53.584;10.084;2023-01-04T06:04:24;7.50;99.90
5154;DHT22;2595;53.584;10.084;2023-01-04T06:06:50;7.50;99.90
5154;DHT22;2595;53.584;10.084;2023-01-04T06:09:16;7.60;99.90
5154;DHT22;2595;53.584;10.084;2023-01-04T06:11:42;7.50;99.90
5154;DHT22;2595;53.584;10.084;2023-01-04T06:14:08;7.60;99.90
5154;DHT22;2595;53.584;10.084;2023-01-04T06:16:33;7.60;99.90
5154;DHT22;2595;53.584;10.084;2023-01-04T06:19:00;7.60;99.90
5154;DHT22;2595;53.584;10.084;2023-01-04T06:21:25;7.60;99.90
5154;DHT22;2595;53.584;10.084;2023-01-04T06:23:51;7.60;99.90
5154;DHT22;2595;53.584;10.084;2023-01-04T06:26:17;7.60;99.90
5154;DHT22;2595;53.584;10.084;2023-01-04T06:28:43;7.70;99.90
5154;DHT22;2595;53.584;10.084;2023-01-04T06:31:09;7.70;99.90
5154;DHT22;2595;53.584;10.084;2023-01-04T06:33:35;7.70;99.90
5154;DHT22;2595;53.584;10.084;2023-01-04T06:36:01;7.80;99.90
5154;DHT22;2595;53.584;10.084;2023-01-04T06:38:27;7.80;99.90
5154;DHT22;2595;53.584;10.084;2023-01-04T06:40:53;7.80;99.90
5154;DHT22;2595;53.584;10.084;2023-01-04T06:43:18;7.90;99.90
5154;DHT22;2595;53.584;10.084;2023-01-04T06:45:44;7.90;99.90
5154;DHT22;2595;53.584;10.084;2023-01-04T06:48:09;7.90;99.90
5154;DHT22;2595;53.584;10.084;2023-01-04T06:50:35;8.00;99.90
5154;DHT22;2595;53.584;10.084;2023-01-04T06:53:01;8.00;99.90
5154;DHT22;2595;53.584;10.084;2023-01-04T06:55:26;8.00;99.90
5154;DHT22;2595;53.584;10.084;2023-01-04T06:57:54;8.00;99.90
5154;DHT22;2595;53.584;10.084;2023-01-04T07:00:20;8.10;99.90
5154;DHT22;2595;53.584;10.084;2023-01-04T07:02:45;8.10;99.90
5154;DHT22;2595;53.584;10.084;2023-01-04T07:05:11;8.20;99.90
5154;DHT22;2595;53.584;10.084;2023-01-04T07:07:36;8.20;99.90
5154;DHT22;2595;53.584;10.084;2023-01-04T07:10:02;8.20;99.90
5154;DHT22;2595;53.584;10.084;2023-01-04T07:12:28;8.20;99.90
5154;DHT22;2595;53.584;10.084;2023-01-04T07:14:54;8.20;99.90
5154;DHT22;2595;53.584;10.084;2023-01-04T07:17:19;8.20;99.90
5154;DHT22;2595;53.584;10.084;2023-01-04T07:19:45;8.30;99.90
5154;DHT22;2595;53.584;10.084;2023-01-04T07:22:10;8.30;99.90
5154;DHT22;2595;53.584;10.084;2023-01-04T07:24:36;8.30;99.90
5154;DHT22;2595;53.584;10.084;2023-01-04T07:27:02;8.30;99.90
5154;DHT22;2595;53.584;10.084;2023-01-04T07:29:27;8.30;99.90
5154;DHT22;2595;53.584;10.084;2023-01-04T07:31:53;8.40;99.90
5154;DHT22;2595;53.584;10.084;2023-01-04T07:34:22;8.40;99.90
5154;DHT22;2595;53.584;10.084;2023-01-04T07:36:48;8.40;99.90
5154;DHT22;2595;53.584;10.084;2023-01-04T07:39:16;8.40;99.90
5154;DHT22;2595;53.584;10.084;2023-01-04T07:41:42;8.50;99.90
5154;DHT22;2595;53.584;10.084;2023-01-04T07:44:09;8.50;99.90
5154;DHT22;2595;53.584;10.084;2023-01-04T07:46:35;8.50;99.90
5154;DHT22;2595;53.584;10.084;2023-01-04T07:49:01;8.50;99.90
5154;DHT22;2595;53.584;10.084;2023-01-04T07:51:29;8.60;99.90
5154;DHT22;2595;53.584;10.084;2023-01-04T07:53:54;8.60;99.90
5154;DHT22;2595;53.584;10.084;2023-01-04T07:56:20;8.60;99.90
5154;DHT22;2595;53.584;10.084;2023-01-04T07:58:46;8.70;99.90
5154;DHT22;2595;53.584;10.084;2023-01-04T08:01:13;8.80;99.90
5154;DHT22;2595;53.584;10.084;2023-01-04T08:03:39;8.70;99.90
5154;DHT22;2595;53.584;10.084;2023-01-04T08:06:07;8.80;99.90
5154;DHT22;2595;53.584;10.084;2023-01-04T08:08:33;8.80;99.90
5154;DHT22;2595;53.584;10.084;2023-01-04T08:11:07;8.90;99.90
5154;DHT22;2595;53.584;10.084;2023-01-04T08:13:33;8.90;99.90
5154;DHT22;2595;53.584;10.084;2023-01-04T08:15:59;8.90;99.90
5154;DHT22;2595;53.584;10.084;2023-01-04T08:18:25;9.00;99.90
5154;DHT22;2595;53.584;10.084;2023-01-04T08:21:06;9.00;99.90
5154;DHT22;2595;53.584;10.084;2023-01-04T08:23:33;9.00;99.90
5154;DHT22;2595;53.584;10.084;2023-01-04T08:26:07;9.00;99.90
5154;DHT22;2595;53.584;10.084;2023-01-04T08:28:33;9.00;99.90
5154;DHT22;2595;53.584;10.084;2023-01-04T08:31:03;9.10;99.90
5154;DHT22;2595;53.584;10.084;2023-01-04T08:33:30;9.10;99.90
5154;DHT22;2595;53.584;10.084;2023-01-04T08:36:24;9.10;99.90
5154;DHT22;2595;53.584;10.084;2023-01-04T08:38:53;9.20;99.90
5154;DHT22;2595;53.584;10.084;2023-01-04T08:41:19;9.20;99.90
5154;DHT22;2595;53.584;10.084;2023-01-04T08:43:45;9.20;99.90
5154;DHT22;2595;53.584;10.084;2023-01-04T08:46:11;9.20;99.90
5154;DHT22;2595;53.584;10.084;2023-01-04T08:48:38;9.20;99.90
5154;DHT22;2595;53.584;10.084;2023-01-04T08:51:08;9.30;99.90
5154;DHT22;2595;53.584;10.084;2023-01-04T08:53:34;9.30;99.90
5154;DHT22;2595;53.584;10.084;2023-01-04T08:56:00;9.30;99.90
5154;DHT22;2595;53.584;10.084;2023-01-04T08:58:28;9.30;99.90
5154;DHT22;2595;53.584;10.084;2023-01-04T09:00:59;9.30;99.90
5154;DHT22;2595;53.584;10.084;2023-01-04T09:03:24;9.30;99.90
5154;DHT22;2595;53.584;10.084;2023-01-04T09:05:50;9.40;99.90
5154;DHT22;2595;53.584;10.084;2023-01-04T09:08:16;9.40;99.90
5154;DHT22;2595;53.584;10.084;2023-01-04T09:10:41;9.40;99.90
5154;DHT22;2595;53.584;10.084;2023-01-04T09:13:07;9.40;99.90
5154;DHT22;2595;53.584;10.084;2023-01-04T09:15:33;9.40;99.90
5154;DHT22;2595;53.584;10.084;2023-01-04T09:17:59;9.50;99.90
5154;DHT22;2595;53.584;10.084;2023-01-04T09:20:24;9.50;99.90
5154;DHT22;2595;53.584;10.084;2023-01-04T09:22:50;9.50;99.90
5154;DHT22;2595;53.584;10.084;2023-01-04T09:25:16;9.50;99.90
5154;DHT22;2595;53.584;10.084;2023-01-04T09:27:42;9.60;99.90
5154;DHT22;2595;53.584;10.084;2023-01-04T09:30:08;9.60;99.90
5154;DHT22;2595;53.584;10.084;2023-01-04T09:32:34;9.60;99.90
5154;DHT22;2595;53.584;10.084;2023-01-04T09:35:00;9.60;99.90
5154;DHT22;2595;53.584;10.084;2023-01-04T09:37:25;9.60;99.90
5154;DHT22;2595;53.584;10.084;2023-01-04T09:39:51;9.70;99.90
5154;DHT22;2595;53.584;10.084;2023-01-04T09:44:57;9.70;99.90
5154;DHT22;2595;53.584;10.084;2023-01-04T09:50:22;9.80;99.90
5154;DHT22;2595;53.584;10.084;2023-01-04T09:55:41;9.80;99.90
5154;DHT22;2595;53.584;10.084;2023-01-04T09:58:29;9.80;99.90
5154;DHT22;2595;53.584;10.084;2023-01-04T10:01:16;9.80;99.90
5154;DHT22;2595;53.584;10.084;2023-01-04T10:04:01;9.80;99.90
5154;DHT22;2595;53.584;10.084;2023-01-04T10:06:31;9.90;99.90
5154;DHT22;2595;53.584;10.084;2023-01-04T10:09:01;9.90;99.90
5154;DHT22;2595;53.584;10.084;2023-01-04T10:14:31;9.90;99.90
5154;DHT22;2595;53.584;10.084;2023-01-04T10:25:29;10.10;99.90
5154;DHT22;2595;53.584;10.084;2023-01-04T10:28:27;10.10;99.90
5154;DHT22;2595;53.584;10.084;2023-01-04T10:31:04;10.10;99.90
5154;DHT22;2595;53.584;10.084;2023-01-04T10:33:49;10.10;99.90
5154;DHT22;2595;53.584;10.084;2023-01-04T10:36:19;10.10;99.90
5154;DHT22;2595;53.584;10.084;2023-01-04T10:38:46;10.10;99.90
5154;DHT22;2595;53.584;10.084;2023-01-04T10:41:25;10.10;99.90
5154;DHT22;2595;53.584;10.084;2023-01-04T10:49:16;10.20;99.90
5154;DHT22;2595;53.584;10.084;2023-01-04T10:51:52;10.20;99.90
5154;DHT22;2595;53.584;10.084;2023-01-04T10:54:27;10.20;99.90
5154;DHT22;2595;53.584;10.084;2023-01-04T10:56:57;10.20;99.90
5154;DHT22;2595;53.584;10.084;2023-01-04T10:59:34;10.20;99.90
5154;DHT22;2595;53.584;10.084;2023-01-04T11:02:38;10.20;99.90
5154;DHT22;2595;53.584;10.084;2023-01-04T11:05:20;10.20;99.90
5154;DHT22;2595;53.584;10.084;2023-01-04T11:07:51;10.20;99.90
5154;DHT22;2595;53.584;10.084;2023-01-04T11:10:25;10.20;99.90
5154;DHT22;2595;53.584;10.084;2023-01-04T11:12:52;10.20;99.90
5154;DHT22;2595;53.584;10.084;2023-01-04T11:15:17;10.20;99.90
5154;DHT22;2595;53.584;10.084;2023-01-04T11:17:44;10.20;99.90
5154;DHT22;2595;53.584;10.084;2023-01-04T11:20:10;10.20;99.90
5154;DHT22;2595;53.584;10.084;2023-01-04T11:22:48;10.20;99.90
5154;DHT22;2595;53.584;10.084;2023-01-04T11:25:19;10.20;99.90
5154;DHT22;2595;53.584;10.084;2023-01-04T11:28:20;10.30;99.90
5154;DHT22;2595;53.584;10.084;2023-01-04T11:30:53;10.30;99.90
5154;DHT22;2595;53.584;10.084;2023-01-04T11:33:21;10.30;99.90
5154;DHT22;2595;53.584;10.084;2023-01-04T11:35:51;10.30;99.90
5154;DHT22;2595;53.584;10.084;2023-01-04T11:38:20;10.40;99.90
5154;DHT22;2595;53.584;10.084;2023-01-04T11:41:07;10.40;99.90
5154;DHT22;2595;53.584;10.084;2023-01-04T11:43:37;10.40;99.90
5154;DHT22;2595;53.584;10.084;2023-01-04T11:46:21;10.40;99.90
5154;DHT22;2595;53.584;10.084;2023-01-04T11:48:48;10.40;99.90
5154;DHT22;2595;53.584;10.084;2023-01-04T11:51:35;10.40;99.90
5154;DHT22;2595;53.584;10.084;2023-01-04T11:54:02;10.40;99.90
5154;DHT22;2595;53.584;10.084;2023-01-04T11:56:31;10.40;99.90
5154;DHT22;2595;53.584;10.084;2023-01-04T11:59:16;10.40;99.90
5154;DHT22;2595;53.584;10.084;2023-01-04T12:01:47;10.40;99.90
5154;DHT22;2595;53.584;10.084;2023-01-04T12:04:17;10.40;99.90
5154;DHT22;2595;53.584;10.084;2023-01-04T12:06:54;10.50;99.90
5154;DHT22;2595;53.584;10.084;2023-01-04T12:09:21;10.50;99.90
5154;DHT22;2595;53.584;10.084;2023-01-04T12:11:54;10.50;99.90
5154;DHT22;2595;53.584;10.084;2023-01-04T12:14:36;10.50;99.90
5154;DHT22;2595;53.584;10.084;2023-01-04T12:17:18;10.50;99.90
5154;DHT22;2595;53.584;10.084;2023-01-04T12:19:45;10.50;99.90
5154;DHT22;2595;53.584;10.084;2023-01-04T12:24:46;10.50;99.90
5154;DHT22;2595;53.584;10.084;2023-01-04T12:27:15;10.50;99.90
5154;DHT22;2595;53.584;10.084;2023-01-04T12:29:54;10.60;99.90
5154;DHT22;2595;53.584;10.084;2023-01-04T12:34:51;10.60;99.90
5154;DHT22;2595;53.584;10.084;2023-01-04T12:43:25;10.60;99.90
5154;DHT22;2595;53.584;10.084;2023-01-04T12:54:56;10.60;99.90
5154;DHT22;2595;53.584;10.084;2023-01-04T12:57:38;10.70;99.90
5154;DHT22;2595;53.584;10.084;2023-01-04T13:00:08;10.70;99.90
5154;DHT22;2595;53.584;10.084;2023-01-04T13:02:36;10.70;99.90
5154;DHT22;2595;53.584;10.084;2023-01-04T13:07:51;10.70;99.90
5154;DHT22;2595;53.584;10.084;2023-01-04T13:10:39;10.70;99.90
5154;DHT22;2595;53.584;10.084;2023-01-04T13:18:40;10.80;99.90
5154;DHT22;2595;53.584;10.084;2023-01-04T13:21:12;10.80;99.90
5154;DHT22;2595;53.584;10.084;2023-01-04T13:23:39;10.80;99.90
5154;DHT22;2595;53.584;10.084;2023-01-04T13:26:28;10.80;99.90
5154;DHT22;2595;53.584;10.084;2023-01-04T13:34:35;10.80;99.90
5154;DHT22;2595;53.584;10.084;2023-01-04T13:37:05;10.80;99.90
5154;DHT22;2595;53.584;10.084;2023-01-04T13:39:32;10.80;99.90
5154;DHT22;2595;53.584;10.084;2023-01-04T13:41:58;10.80;99.90
5154;DHT22;2595;53.584;10.084;2023-01-04T13:47:12;10.80;99.90
5154;DHT22;2595;53.584;10.084;2023-01-04T13:49:39;10.80;99.90
5154;DHT22;2595;53.584;10.084;2023-01-04T13:52:25;10.70;99.90
5154;DHT22;2595;53.584;10.084;2023-01-04T13:54:51;10.80;99.90
5154;DHT22;2595;53.584;10.084;2023-01-04T13:57:34;10.80;99.90
5154;DHT22;2595;53.584;10.084;2023-01-04T14:00:04;10.80;99.90
5154;DHT22;2595;53.584;10.084;2023-01-04T14:02:30;10.80;99.90
5154;DHT22;2595;53.584;10.084;2023-01-04T14:04:58;10.80;99.90
5154;DHT22;2595;53.584;10.084;2023-01-04T14:07:24;10.80;99.90
5154;DHT22;2595;53.584;10.084;2023-01-04T14:09:54;10.80;99.90
5154;DHT22;2595;53.584;10.084;2023-01-04T14:12:26;10.80;99.90
5154;DHT22;2595;53.584;10.084;2023-01-04T14:14:55;10.80;99.90
5154;DHT22;2595;53.584;10.084;2023-01-04T14:17:33;10.80;99.90
5154;DHT22;2595;53.584;10.084;2023-01-04T14:30:56;10.90;99.90
5154;DHT22;2595;53.584;10.084;2023-01-04T14:44:26;10.90;99.90
5154;DHT22;2595;53.584;10.084;2023-01-04T14:46:57;10.90;99.90
5154;DHT22;2595;53.584;10.084;2023-01-04T14:49:24;10.90;99.90
5154;DHT22;2595;53.584;10.084;2023-01-04T14:54:20;10.90;99.90
5154;DHT22;2595;53.584;10.084;2023-01-04T14:56:46;10.90;99.90
5154;DHT22;2595;53.584;10.084;2023-01-04T14:59:12;10.90;99.90
5154;DHT22;2595;53.584;10.084;2023-01-04T15:01:38;10.90;99.90
5154;DHT22;2595;53.584;10.084;2023-01-04T15:04:04;10.90;99.90
5154;DHT22;2595;53.584;10.084;2023-01-04T15:06:30;10.90;99.90
5154;DHT22;2595;53.584;10.084;2023-01-04T15:08:56;10.90;99.90
5154;DHT22;2595;53.584;10.084;2023-01-04T15:11:22;10.90;99.90
5154;DHT22;2595;53.584;10.084;2023-01-04T15:13:47;10.90;99.90
5154;DHT22;2595;53.584;10.084;2023-01-04T15:16:15;10.80;99.90
5154;DHT22;2595;53.584;10.084;2023-01-04T15:18:42;10.80;99.90
5154;DHT22;2595;53.584;10.084;2023-01-04T15:21:08;10.80;99.90
5154;DHT22;2595;53.584;10.084;2023-01-04T15:23:34;10.80;99.90
5154;DHT22;2595;53.584;10.084;2023-01-04T15:26:04;10.80;99.90
5154;DHT22;2595;53.584;10.084;2023-01-04T15:28:30;10.80;99.90
5154;DHT22;2595;53.584;10.084;2023-01-04T15:30:56;10.80;99.90
5154;DHT22;2595;53.584;10.084;2023-01-04T15:33:22;10.90;99.90
5154;DHT22;2595;53.584;10.084;2023-01-04T15:35:57;10.90;99.90
5154;DHT22;2595;53.584;10.084;2023-01-04T15:38:23;10.90;99.90
5154;DHT22;2595;53.584;10.084;2023-01-04T15:40:48;10.90;99.90
5154;DHT22;2595;53.584;10.084;2023-01-04T15:43:15;10.90;99.90
5154;DHT22;2595;53.584;10.084;2023-01-04T15:45:40;11.00;99.90
5154;DHT22;2595;53.584;10.084;2023-01-04T15:48:08;10.90;99.90
5154;DHT22;2595;53.584;10.084;2023-01-04T15:50:36;10.90;99.90
5154;DHT22;2595;53.584;10.084;2023-01-04T15:53:04;10.90;99.90
5154;DHT22;2595;53.584;10.084;2023-01-04T15:55:31;10.90;99.90
5154;DHT22;2595;53.584;10.084;2023-01-04T15:57:57;11.00;99.90
5154;DHT22;2595;53.584;10.084;2023-01-04T16:00:23;11.00;99.90
5154;DHT22;2595;53.584;10.084;2023-01-04T16:02:49;11.00;99.90
5154;DHT22;2595;53.584;10.084;2023-01-04T16:05:14;11.10;99.90
5154;DHT22;2595;53.584;10.084;2023-01-04T16:07:45;11.00;99.90
5154;DHT22;2595;53.584;10.084;2023-01-04T16:10:11;11.00;99.90
5154;DHT22;2595;53.584;10.084;2023-01-04T16:12:36;11.10;99.90
5154;DHT22;2595;53.584;10.084;2023-01-04T16:15:10;11.10;99.90
5154;DHT22;2595;53.584;10.084;2023-01-04T16:17:36;11.10;99.90
5154;DHT22;2595;53.584;10.084;2023-01-04T16:20:02;11.10;99.90
5154;DHT22;2595;53.584;10.084;2023-01-04T16:22:27;11.10;99.90
5154;DHT22;2595;53.584;10.084;2023-01-04T16:24:53;11.10;99.90
5154;DHT22;2595;53.584;10.084;2023-01-04T16:27:19;11.10;99.90
5154;DHT22;2595;53.584;10.084;2023-01-04T16:29:44;11.20;99.90
5154;DHT22;2595;53.584;10.084;2023-01-04T16:32:10;11.20;99.90
5154;DHT22;2595;53.584;10.084;2023-01-04T16:34:36;11.20;99.90
5154;DHT22;2595;53.584;10.084;2023-01-04T16:37:02;11.20;99.90
5154;DHT22;2595;53.584;10.084;2023-01-04T16:39:27;11.20;99.90
5154;DHT22;2595;53.584;10.084;2023-01-04T16:41:53;11.20;99.90
5154;DHT22;2595;53.584;10.084;2023-01-04T16:44:19;11.20;99.90
5154;DHT22;2595;53.584;10.084;2023-01-04T16:46:45;11.30;99.90
5154;DHT22;2595;53.584;10.084;2023-01-04T16:49:15;11.30;99.90
5154;DHT22;2595;53.584;10.084;2023-01-04T16:51:43;11.30;99.90
5154;DHT22;2595;53.584;10.084;2023-01-04T16:54:12;11.30;99.90
5154;DHT22;2595;53.584;10.084;2023-01-04T16:56:39;11.20;99.90
5154;DHT22;2595;53.584;10.084;2023-01-04T16:59:05;11.20;99.90
5154;DHT22;2595;53.584;10.084;2023-01-04T17:01:33;11.20;99.90
5154;DHT22;2595;53.584;10.084;2023-01-04T17:04:01;11.20;99.90
5154;DHT22;2595;53.584;10.084;2023-01-04T17:06:31;11.20;99.90
5154;DHT22;2595;53.584;10.084;2023-01-04T17:08:58;11.20;99.90
5154;DHT22;2595;53.584;10.084;2023-01-04T17:11:26;11.20;99.90
5154;DHT22;2595;53.584;10.084;2023-01-04T17:13:52;11.20;99.90
5154;DHT22;2595;53.584;10.084;2023-01-04T17:16:18;11.20;99.90
5154;DHT22;2595;53.584;10.084;2023-01-04T17:18:47;11.20;99.90
5154;DHT22;2595;53.584;10.084;2023-01-04T17:21:17;11.20;99.90
5154;DHT22;2595;53.584;10.084;2023-01-04T17:23:45;11.20;99.90
5154;DHT22;2595;53.584;10.084;2023-01-04T17:26:26;11.10;99.90
5154;DHT22;2595;53.584;10.084;2023-01-04T17:28:53;11.10;99.90
5154;DHT22;2595;53.584;10.084;2023-01-04T17:31:23;11.10;99.90
5154;DHT22;2595;53.584;10.084;2023-01-04T17:33:50;11.10;99.90
5154;DHT22;2595;53.584;10.084;2023-01-04T17:36:17;11.00;99.90
5154;DHT22;2595;53.584;10.084;2023-01-04T17:38:43;11.00;99.90
5154;DHT22;2595;53.584;10.084;2023-01-04T17:41:11;11.00;99.90
5154;DHT22;2595;53.584;10.084;2023-01-04T17:43:38;11.00;99.90
5154;DHT22;2595;53.584;10.084;2023-01-04T17:46:07;11.00;99.90
5154;DHT22;2595;53.584;10.084;2023-01-04T17:48:34;11.00;99.90
5154;DHT22;2595;53.584;10.084;2023-01-04T17:51:05;11.00;99.90
5154;DHT22;2595;53.584;10.084;2023-01-04T17:53:30;11.00;99.90
5154;DHT22;2595;53.584;10.084;2023-01-04T17:56:00;10.90;99.90
5154;DHT22;2595;53.584;10.084;2023-01-04T17:58:27;11.00;99.90
5154;DHT22;2595;53.584;10.084;2023-01-04T18:00:52;11.00;99.90
5154;DHT22;2595;53.584;10.084;2023-01-04T18:03:18;11.00;99.90
5154;DHT22;2595;53.584;10.084;2023-01-04T18:05:53;11.00;99.90